createdAt,value
2019-02-14T00:00:43.482Z,32.23
2019-02-14T00:03:16.988Z,26.00
2019-02-14T00:05:55.761Z,26.27
2019-02-14T00:08:27.829Z,26.80
2019-02-14T00:11:06.436Z,30.30
2019-02-14T00:13:38.397Z,30.13
2019-02-14T00:16:09.854Z,24.07
2019-02-14T00:18:41.626Z,30.63
2019-02-14T00:21:12.987Z,29.73
2019-02-14T00:26:56.076Z,29.00
2019-02-14T00:29:39.037Z,27.57
2019-02-14T00:32:19.301Z,21.27
2019-02-14T00:34:58.239Z,26.87
2019-02-14T00:37:30.917Z,24.20
2019-02-14T00:40:08.130Z,21.87
2019-02-14T00:42:40.939Z,31.30
2019-02-14T00:45:17.436Z,22.77
2019-02-14T00:47:48.790Z,27.20
2019-02-14T00:50:20.331Z,25.33
2019-02-14T00:52:52.126Z,26.47
2019-02-14T00:55:38.404Z,23.03
2019-02-14T00:58:09.984Z,25.10
2019-02-14T01:01:01.789Z,24.57
2019-02-14T01:03:40.093Z,26.77
2019-02-14T01:06:20.658Z,24.67
2019-02-14T01:09:09.615Z,27.37
2019-02-14T01:12:10.317Z,22.00
2019-02-14T01:15:10.258Z,19.27
2019-02-14T01:17:49.991Z,20.47
2019-02-14T01:20:35.155Z,18.90
2019-02-14T01:23:12.536Z,25.37
2019-02-14T01:29:08.842Z,22.17
2019-02-14T01:31:40.586Z,21.93
2019-02-14T01:34:32.298Z,16.53
2019-02-14T01:37:44.428Z,20.00
2019-02-14T01:40:09.286Z,21.40
2019-02-14T01:43:02.562Z,18.07
2019-02-14T01:45:53.257Z,20.07
2019-02-14T01:48:30.406Z,20.57
2019-02-14T01:51:12.429Z,21.40
2019-02-14T01:53:51.793Z,21.27
2019-02-14T01:56:32.193Z,17.87
2019-02-14T01:59:07.166Z,24.53
2019-02-14T02:01:48.639Z,24.97
2019-02-14T02:04:25.838Z,21.80
2019-02-14T02:07:11.482Z,18.47
2019-02-14T02:09:43.175Z,22.70
2019-02-14T02:15:14.804Z,19.90
2019-02-14T02:17:46.314Z,23.17
2019-02-14T02:20:17.852Z,17.23
2019-02-14T02:22:49.276Z,20.20
2019-02-14T02:25:20.362Z,15.63
2019-02-14T02:27:52.770Z,17.53
2019-02-14T02:30:28.841Z,17.53
2019-02-14T02:33:13.351Z,18.07
2019-02-14T02:35:44.759Z,22.80
2019-02-14T02:38:18.584Z,21.53
2019-02-14T02:40:50.211Z,25.17
2019-02-14T02:43:31.111Z,21.83
2019-02-14T02:46:16.330Z,17.17
2019-02-14T02:48:55.741Z,17.07
2019-02-14T02:51:36.117Z,17.40
2019-02-14T02:54:20.096Z,18.47
2019-02-14T02:57:00.764Z,20.23
2019-02-14T02:59:32.306Z,20.93
2019-02-14T03:02:06.982Z,15.50
2019-02-14T03:04:38.257Z,22.93
2019-02-14T04:06:17.417Z,20.43
2019-02-14T04:08:52.018Z,21.53
2019-02-14T04:11:39.789Z,16.60
2019-02-14T04:14:16.785Z,27.37
2019-02-14T04:16:49.733Z,20.20
2019-02-14T04:19:20.994Z,24.37
2019-02-14T04:21:52.531Z,28.67
2019-02-14T04:24:23.962Z,27.37
2019-02-14T04:26:55.445Z,28.90
2019-02-14T04:29:27.034Z,24.83
2019-02-14T04:32:00.890Z,23.87
2019-02-14T04:34:33.765Z,27.40
2019-02-14T04:37:05.949Z,25.30
2019-02-14T04:39:41.906Z,29.73
2019-02-14T04:42:15.056Z,28.93
2019-02-14T04:45:01.440Z,29.80
2019-02-14T04:47:23.259Z,22.50
2019-02-14T04:50:05.362Z,26.23
2019-02-14T04:52:37.540Z,28.70
2019-02-14T04:55:09.354Z,26.03
2019-02-14T04:58:05.610Z,22.63
2019-02-14T05:00:49.524Z,26.90
2019-02-14T05:03:21.842Z,27.97
2019-02-14T05:05:53.219Z,24.07
2019-02-14T05:08:24.856Z,21.63
2019-02-14T05:10:56.142Z,24.97
2019-02-14T05:13:27.853Z,25.23
2019-02-14T05:15:59.336Z,20.33
2019-02-14T05:18:33.751Z,24.87
2019-02-14T05:21:05.121Z,22.20
2019-02-14T05:23:39.351Z,22.77
2019-02-14T05:26:12.157Z,24.67
2019-02-14T05:28:45.062Z,23.33
2019-02-14T05:31:16.547Z,23.93
2019-02-14T05:33:48.089Z,21.20
2019-02-14T05:36:19.676Z,21.90
2019-02-14T05:38:52.848Z,27.87
2019-02-14T05:41:24.542Z,26.93
2019-02-14T05:43:56.181Z,25.43
2019-02-14T05:46:28.699Z,27.00
2019-02-14T05:49:00.010Z,27.20
2019-02-14T05:51:31.697Z,19.23
2019-02-14T05:54:04.885Z,25.50
2019-02-14T05:56:36.288Z,24.30
2019-02-14T05:59:07.966Z,23.97
2019-02-14T06:01:39.553Z,27.83
2019-02-14T06:04:10.935Z,28.67
2019-02-14T06:06:42.346Z,26.03
2019-02-14T06:09:14.194Z,30.30
2019-02-14T06:11:45.861Z,27.83
2019-02-14T06:14:17.578Z,30.70
2019-02-14T06:16:48.950Z,25.93
2019-02-14T06:19:20.329Z,29.43
2019-02-14T06:21:53.409Z,27.13
2019-02-14T06:24:24.666Z,26.60
2019-02-14T06:26:56.133Z,26.03
2019-02-14T06:29:34.828Z,25.97
2019-02-14T06:32:06.362Z,27.00
2019-02-14T06:34:38.835Z,21.00
2019-02-14T06:37:13.409Z,24.63
2019-02-14T06:39:44.785Z,22.63
2019-02-14T06:42:17.052Z,23.33
2019-02-14T06:44:49.165Z,24.83
2019-02-14T06:47:20.641Z,22.40
2019-02-14T06:49:52.656Z,20.97
2019-02-14T06:52:23.957Z,20.67
2019-02-14T06:54:55.838Z,19.87
2019-02-14T06:57:27.869Z,21.50
2019-02-14T06:59:59.161Z,20.73
2019-02-14T07:02:39.001Z,26.70
2019-02-14T07:05:11.049Z,27.10
2019-02-14T07:07:42.824Z,25.47
2019-02-14T07:10:15.104Z,23.03
2019-02-14T07:12:47.919Z,26.00
2019-02-14T07:15:19.421Z,22.73
2019-02-14T07:17:52.306Z,25.43
2019-02-14T07:20:24.633Z,21.17
2019-02-14T07:22:56.729Z,29.57
2019-02-14T07:25:28.294Z,19.33
2019-02-14T07:27:59.525Z,26.40
2019-02-14T07:30:31.128Z,27.57
2019-02-14T07:33:03.741Z,28.23
2019-02-14T07:35:36.578Z,32.13
2019-02-14T07:38:08.118Z,27.83
2019-02-14T07:40:39.823Z,27.40
2019-02-14T07:43:11.798Z,41.93
2019-02-14T07:45:43.606Z,32.17
2019-02-14T07:48:14.888Z,32.83
2019-02-14T07:50:46.374Z,32.63
2019-02-14T07:53:18.149Z,31.27
2019-02-14T07:55:50.423Z,38.53
2019-02-14T07:58:23.258Z,34.57
2019-02-14T08:00:55.609Z,34.57
2019-02-14T08:03:27.990Z,32.27
2019-02-14T08:06:00.319Z,30.60
2019-02-14T08:08:32.330Z,32.37
2019-02-14T08:11:05.430Z,38.23
2019-02-14T08:13:36.815Z,28.43
2019-02-14T08:16:08.485Z,33.77
2019-02-14T08:18:40.147Z,27.03
2019-02-14T08:21:11.650Z,29.00
2019-02-14T08:23:45.593Z,25.80
2019-02-14T08:26:16.910Z,26.53
2019-02-14T08:28:48.690Z,26.47
2019-02-14T08:31:21.025Z,29.90
2019-02-14T08:33:52.413Z,29.20
2019-02-14T08:36:25.066Z,30.27
2019-02-14T08:38:57.022Z,31.00
2019-02-14T08:41:28.419Z,32.87
2019-02-14T08:43:59.971Z,34.47
2019-02-14T08:46:33.085Z,31.43
2019-02-14T08:49:04.798Z,31.77
2019-02-14T08:51:37.630Z,31.03
2019-02-14T08:54:09.524Z,30.27
2019-02-14T08:56:41.809Z,29.33
2019-02-14T08:59:14.325Z,26.63
2019-02-14T09:01:45.817Z,27.63
2019-02-14T09:04:17.262Z,27.97
2019-02-14T09:06:48.818Z,26.53
2019-02-14T09:09:20.211Z,24.27
2019-02-14T09:11:51.882Z,24.17
2019-02-14T09:14:23.202Z,22.53
2019-02-14T09:16:54.615Z,22.33
2019-02-14T09:19:26.084Z,23.37
2019-02-14T09:21:59.696Z,24.57
2019-02-14T09:24:30.974Z,22.90
2019-02-14T09:27:02.476Z,24.03
2019-02-14T09:29:34.106Z,20.60
2019-02-14T09:32:05.910Z,21.77
2019-02-14T09:34:37.346Z,18.17
2019-02-14T09:37:08.794Z,18.70
2019-02-14T09:39:41.812Z,18.03
2019-02-14T09:42:14.046Z,16.10
2019-02-14T09:44:45.483Z,19.50
2019-02-14T09:50:20.721Z,16.47
2019-02-14T09:52:53.539Z,16.67
2019-02-14T09:55:24.863Z,16.33
2019-02-14T09:57:56.369Z,14.13
2019-02-14T10:00:27.703Z,11.40
2019-02-14T10:02:59.892Z,12.77
2019-02-14T10:05:31.550Z,13.47
2019-02-14T10:08:12.212Z,9.73
2019-02-14T10:10:36.664Z,11.87
2019-02-14T10:13:09.219Z,16.73
2019-02-14T10:15:41.128Z,12.87
2019-02-14T10:18:14.164Z,10.43
2019-02-14T10:20:46.010Z,13.67
2019-02-14T10:23:20.599Z,12.07
2019-02-14T10:25:52.704Z,13.57
2019-02-14T10:28:24.277Z,10.03
2019-02-14T10:30:56.474Z,11.87
2019-02-14T10:33:27.817Z,18.33
2019-02-14T10:35:59.161Z,18.90
2019-02-14T10:38:31.917Z,14.83
2019-02-14T10:41:03.599Z,13.63
2019-02-14T10:43:34.954Z,13.27
2019-02-14T10:46:07.072Z,13.63
2019-02-14T10:48:43.231Z,15.10
2019-02-14T10:51:14.555Z,12.17
2019-02-14T10:53:45.914Z,11.87
2019-02-14T10:56:17.490Z,14.07
2019-02-14T10:58:48.804Z,13.30
2019-02-14T11:01:20.737Z,13.50
2019-02-14T11:03:53.587Z,15.03
2019-02-14T11:06:24.858Z,15.43
2019-02-14T11:08:56.317Z,14.17
2019-02-14T11:11:29.223Z,12.50
2019-02-14T11:14:03.065Z,11.80
2019-02-14T11:16:34.831Z,13.83
2019-02-14T11:19:06.185Z,15.40
2019-02-14T11:21:38.237Z,14.73
2019-02-14T11:24:09.942Z,16.73
2019-02-14T11:26:41.650Z,16.10
2019-02-14T11:29:14.566Z,13.87
2019-02-14T11:31:46.527Z,15.17
2019-02-14T11:34:17.722Z,19.40
2019-02-14T11:36:49.026Z,14.70
2019-02-14T11:39:20.902Z,14.77
2019-02-14T11:41:52.397Z,15.37
2019-02-14T11:44:23.730Z,16.77
2019-02-14T11:46:58.583Z,13.03
2019-02-14T11:49:31.484Z,12.57
2019-02-14T11:52:02.793Z,13.53
2019-02-14T11:54:34.073Z,12.73
2019-02-14T11:57:05.559Z,17.80
2019-02-14T11:59:37.126Z,15.07
2019-02-14T12:02:08.439Z,17.00
2019-02-14T12:04:40.109Z,13.27
2019-02-14T12:07:11.930Z,13.20
2019-02-14T12:09:44.628Z,11.20
2019-02-14T12:12:16.054Z,10.67
2019-02-14T12:14:47.677Z,13.50
2019-02-14T12:17:19.045Z,12.03
2019-02-14T12:19:50.920Z,12.33
2019-02-14T12:22:22.458Z,12.13
2019-02-14T12:24:53.738Z,10.00
2019-02-14T12:27:25.017Z,11.80
2019-02-14T12:29:56.394Z,10.67
2019-02-14T12:32:27.801Z,13.80
2019-02-14T12:34:59.100Z,11.27
2019-02-14T12:37:30.989Z,12.80
2019-02-14T12:40:02.485Z,11.23
2019-02-14T12:42:35.128Z,12.23
2019-02-14T12:45:07.552Z,12.27
2019-02-14T12:47:39.037Z,14.23
2019-02-14T12:50:10.807Z,17.17
2019-02-14T12:52:44.014Z,15.37
2019-02-14T12:55:15.458Z,15.63
2019-02-14T12:57:47.773Z,16.50
2019-02-14T13:00:20.166Z,16.63
2019-02-14T13:02:52.541Z,19.93
2019-02-14T13:05:23.811Z,38.97
2019-02-14T13:07:55.336Z,30.57
2019-02-14T13:10:26.714Z,25.67
2019-02-14T13:12:58.089Z,22.37
2019-02-14T13:15:30.166Z,26.53
2019-02-14T13:18:01.789Z,24.33
2019-02-14T13:20:33.098Z,20.23
2019-02-14T13:23:04.565Z,20.97
2019-02-14T13:25:36.079Z,17.57
2019-02-14T13:28:07.563Z,15.37
2019-02-14T13:30:39.048Z,17.93
2019-02-14T13:33:10.730Z,23.00
2019-02-14T13:35:43.895Z,18.50
2019-02-14T13:38:15.389Z,16.93
2019-02-14T13:40:46.999Z,22.70
2019-02-14T13:43:20.267Z,16.83
2019-02-14T13:45:51.723Z,17.67
2019-02-14T13:48:23.620Z,22.37
2019-02-14T13:50:57.439Z,17.40
2019-02-14T13:53:28.801Z,18.60
2019-02-14T13:56:01.362Z,24.40
2019-02-14T13:58:34.401Z,19.87
2019-02-14T14:01:05.892Z,23.67
2019-02-14T14:03:39.364Z,20.80
2019-02-14T14:06:10.814Z,23.10
2019-02-14T14:08:42.813Z,22.57
2019-02-14T14:11:14.380Z,26.03
2019-02-14T14:13:45.844Z,23.83
2019-02-14T14:16:17.503Z,22.67
2019-02-14T14:18:48.928Z,21.20
2019-02-14T14:21:20.280Z,21.90
2019-02-14T14:23:51.685Z,25.33
2019-02-14T14:26:23.162Z,23.33
2019-02-14T14:28:54.643Z,26.00
2019-02-14T14:31:26.111Z,22.87
2019-02-14T14:33:57.790Z,19.53
2019-02-14T14:36:29.062Z,25.47
2019-02-14T14:39:01.875Z,27.57
2019-02-14T14:41:35.697Z,24.00
2019-02-14T14:44:28.924Z,32.57
2019-02-14T14:47:06.637Z,29.40
2019-02-14T14:49:38.273Z,34.47
2019-02-14T14:52:09.645Z,42.40
2019-02-14T14:54:41.168Z,45.23
2019-02-14T14:57:12.846Z,40.10
2019-02-14T14:59:46.557Z,38.77
2019-02-14T15:02:20.503Z,37.20
2019-02-14T15:04:52.139Z,33.67
2019-02-14T15:07:25.104Z,35.17
2019-02-14T15:09:57.819Z,43.23
2019-02-14T18:07:25.821Z,61.13
2019-02-14T18:09:57.313Z,59.87
2019-02-14T18:19:23.714Z,59.00
2019-02-14T18:27:57.313Z,65.90
2019-02-14T20:58:04.816Z,70.90
2019-02-14T22:18:39.276Z,75.73
2019-02-14T23:42:03.763Z,80.27
2019-02-14T23:44:55.066Z,84.43
2019-02-14T23:47:27.499Z,95.17
2019-02-14T23:50:04.513Z,86.37
2019-02-14T23:52:40.038Z,85.23
2019-02-14T23:55:26.835Z,68.87
2019-02-14T23:57:58.124Z,80.97
